sensor_id;sensor_type;location;lat;lon;timestamp;temperature;humidity
53286;DHT22;39171;45.550;12.074;2023-01-31T00:04:33;12.80;55.70
53286;DHT22;39171;45.550;12.074;2023-01-31T00:10:35;12.80;55.90
53286;DHT22;39171;45.550;12.074;2023-01-31T00:16:36;12.80;55.70
53286;DHT22;39171;45.550;12.074;2023-01-31T00:22:37;12.80;55.80
53286;DHT22;39171;45.550;12.074;2023-01-31T00:28:38;12.70;56.00
53286;DHT22;39171;45.550;12.074;2023-01-31T00:34:40;12.70;56.00
53286;DHT22;39171;45.550;12.074;2023-01-31T00:40:41;12.70;55.90
53286;DHT22;39171;45.550;12.074;2023-01-31T00:46:42;12.70;56.00
53286;DHT22;39171;45.550;12.074;2023-01-31T00:52:44;12.60;56.10
53286;DHT22;39171;45.550;12.074;2023-01-31T00:58:45;12.60;56.10
53286;DHT22;39171;45.550;12.074;2023-01-31T01:04:47;12.60;56.70
53286;DHT22;39171;45.550;12.074;2023-01-31T01:10:48;12.60;56.70
53286;DHT22;39171;45.550;12.074;2023-01-31T01:16:49;12.50;56.80
53286;DHT22;39171;45.550;12.074;2023-01-31T01:22:50;12.50;56.50
53286;DHT22;39171;45.550;12.074;2023-01-31T01:28:53;12.50;56.40
53286;DHT22;39171;45.550;12.074;2023-01-31T01:34:54;12.40;56.70
53286;DHT22;39171;45.550;12.074;2023-01-31T01:40:55;12.40;56.50
53286;DHT22;39171;45.550;12.074;2023-01-31T01:46:57;12.30;56.90
53286;DHT22;39171;45.550;12.074;2023-01-31T01:59:05;12.30;57.50
53286;DHT22;39171;45.550;12.074;2023-01-31T02:05:08;12.30;57.70
53286;DHT22;39171;45.550;12.074;2023-01-31T02:11:25;12.30;58.00
53286;DHT22;39171;45.550;12.074;2023-01-31T02:17:27;12.30;57.20
53286;DHT22;39171;45.550;12.074;2023-01-31T02:42:26;12.10;57.30
53286;DHT22;39171;45.550;12.074;2023-01-31T02:48:50;12.10;58.30
53286;DHT22;39171;45.550;12.074;2023-01-31T02:55:16;12.10;58.50
53286;DHT22;39171;45.550;12.074;2023-01-31T03:01:34;12.10;58.30
53286;DHT22;39171;45.550;12.074;2023-01-31T03:07:36;12.00;58.40
53286;DHT22;39171;45.550;12.074;2023-01-31T03:25:57;12.00;58.10
53286;DHT22;39171;45.550;12.074;2023-01-31T03:32:04;11.90;58.20
53286;DHT22;39171;45.550;12.074;2023-01-31T03:50:34;11.80;57.90
53286;DHT22;39171;45.550;12.074;2023-01-31T03:56:42;11.80;58.20
53286;DHT22;39171;45.550;12.074;2023-01-31T04:02:45;11.70;58.20
53286;DHT22;39171;45.550;12.074;2023-01-31T04:08:47;11.70;58.10
53286;DHT22;39171;45.550;12.074;2023-01-31T04:14:49;11.70;58.40
53286;DHT22;39171;45.550;12.074;2023-01-31T04:20:51;11.70;58.60
53286;DHT22;39171;45.550;12.074;2023-01-31T04:26:52;11.70;58.70
53286;DHT22;39171;45.550;12.074;2023-01-31T04:32:53;11.70;59.00
53286;DHT22;39171;45.550;12.074;2023-01-31T04:38:54;11.70;58.90
53286;DHT22;39171;45.550;12.074;2023-01-31T04:44:55;11.60;58.90
53286;DHT22;39171;45.550;12.074;2023-01-31T04:50:56;11.60;58.90
53286;DHT22;39171;45.550;12.074;2023-01-31T04:56:57;11.60;58.50
53286;DHT22;39171;45.550;12.074;2023-01-31T05:02:59;11.60;58.90
53286;DHT22;39171;45.550;12.074;2023-01-31T05:09:01;11.50;58.80
53286;DHT22;39171;45.550;12.074;2023-01-31T05:15:02;11.50;58.70
53286;DHT22;39171;45.550;12.074;2023-01-31T05:21:04;11.50;58.90
53286;DHT22;39171;45.550;12.074;2023-01-31T05:27:05;11.50;59.20
53286;DHT22;39171;45.550;12.074;2023-01-31T05:33:07;11.50;59.50
53286;DHT22;39171;45.550;12.074;2023-01-31T05:39:08;11.40;59.70
53286;DHT22;39171;45.550;12.074;2023-01-31T05:45:10;11.40;59.70
53286;DHT22;39171;45.550;12.074;2023-01-31T05:51:12;11.40;59.70
53286;DHT22;39171;45.550;12.074;2023-01-31T05:57:13;11.40;60.00
53286;DHT22;39171;45.550;12.074;2023-01-31T06:03:15;11.40;59.60
53286;DHT22;39171;45.550;12.074;2023-01-31T06:09:17;11.40;59.20
53286;DHT22;39171;45.550;12.074;2023-01-31T06:15:18;11.30;59.30
53286;DHT22;39171;45.550;12.074;2023-01-31T06:21:19;11.30;59.40
53286;DHT22;39171;45.550;12.074;2023-01-31T06:27:21;11.30;59.70
53286;DHT22;39171;45.550;12.074;2023-01-31T06:33:22;11.50;59.30
53286;DHT22;39171;45.550;12.074;2023-01-31T06:39:27;11.70;58.80
53286;DHT22;39171;45.550;12.074;2023-01-31T06:45:33;12.00;58.20
53286;DHT22;39171;45.550;12.074;2023-01-31T06:51:34;12.30;57.60
53286;DHT22;39171;45.550;12.074;2023-01-31T06:57:47;12.50;56.90
53286;DHT22;39171;45.550;12.074;2023-01-31T07:03:48;12.70;56.40
53286;DHT22;39171;45.550;12.074;2023-01-31T07:09:49;12.80;55.90
53286;DHT22;39171;45.550;12.074;2023-01-31T07:15:50;13.00;55.40
53286;DHT22;39171;45.550;12.074;2023-01-31T07:21:51;13.10;55.20
53286;DHT22;39171;45.550;12.074;2023-01-31T07:27:52;13.20;55.00
53286;DHT22;39171;45.550;12.074;2023-01-31T07:33:53;13.30;54.50
53286;DHT22;39171;45.550;12.074;2023-01-31T07:39:54;13.40;54.10
53286;DHT22;39171;45.550;12.074;2023-01-31T07:45:56;13.50;53.90
53286;DHT22;39171;45.550;12.074;2023-01-31T07:51:57;13.60;53.60
53286;DHT22;39171;45.550;12.074;2023-01-31T07:57:58;13.70;53.40
53286;DHT22;39171;45.550;12.074;2023-01-31T08:03:59;13.70;53.10
53286;DHT22;39171;45.550;12.074;2023-01-31T08:10:00;13.80;52.90
53286;DHT22;39171;45.550;12.074;2023-01-31T08:16:02;13.80;53.00
53286;DHT22;39171;45.550;12.074;2023-01-31T08:22:03;14.00;52.70
53286;DHT22;39171;45.550;12.074;2023-01-31T08:28:05;14.00;52.50
53286;DHT22;39171;45.550;12.074;2023-01-31T08:34:06;14.10;52.60
53286;DHT22;39171;45.550;12.074;2023-01-31T08:40:07;14.20;52.40
53286;DHT22;39171;45.550;12.074;2023-01-31T08:46:10;14.30;52.30
53286;DHT22;39171;45.550;12.074;2023-01-31T08:52:11;14.30;52.20
53286;DHT22;39171;45.550;12.074;2023-01-31T08:58:12;14.40;52.10
53286;DHT22;39171;45.550;12.074;2023-01-31T09:04:13;14.50;52.00
53286;DHT22;39171;45.550;12.074;2023-01-31T09:10:15;14.60;52.00
53286;DHT22;39171;45.550;12.074;2023-01-31T09:16:16;14.70;51.80
53286;DHT22;39171;45.550;12.074;2023-01-31T09:22:20;14.70;51.40
53286;DHT22;39171;45.550;12.074;2023-01-31T09:28:22;14.80;50.90
53286;DHT22;39171;45.550;12.074;2023-01-31T09:34:24;14.90;50.60
53286;DHT22;39171;45.550;12.074;2023-01-31T09:40:25;15.00;51.20
53286;DHT22;39171;45.550;12.074;2023-01-31T09:46:31;15.10;51.10
53286;DHT22;39171;45.550;12.074;2023-01-31T09:52:33;15.20;50.80
53286;DHT22;39171;45.550;12.074;2023-01-31T09:58:47;15.20;50.80
53286;DHT22;39171;45.550;12.074;2023-01-31T10:17:41;15.30;50.10
53286;DHT22;39171;45.550;12.074;2023-01-31T10:23:49;15.30;49.80
53286;DHT22;39171;45.550;12.074;2023-01-31T10:29:53;15.40;49.70
53286;DHT22;39171;45.550;12.074;2023-01-31T10:35:56;15.40;49.40
53286;DHT22;39171;45.550;12.074;2023-01-31T10:48:23;15.50;49.30
53286;DHT22;39171;45.550;12.074;2023-01-31T10:54:34;15.60;49.20
53286;DHT22;39171;45.550;12.074;2023-01-31T11:00:36;15.70;49.10
53286;DHT22;39171;45.550;12.074;2023-01-31T11:06:38;15.70;49.00
53286;DHT22;39171;45.550;12.074;2023-01-31T11:12:40;15.80;48.80
53286;DHT22;39171;45.550;12.074;2023-01-31T11:18:47;15.80;48.70
53286;DHT22;39171;45.550;12.074;2023-01-31T11:24:49;15.90;48.80
53286;DHT22;39171;45.550;12.074;2023-01-31T11:30:54;16.00;48.60
53286;DHT22;39171;45.550;12.074;2023-01-31T11:37:03;16.00;48.50
53286;DHT22;39171;45.550;12.074;2023-01-31T11:43:06;16.10;48.30
53286;DHT22;39171;45.550;12.074;2023-01-31T11:49:28;16.10;48.30
53286;DHT22;39171;45.550;12.074;2023-01-31T11:55:35;16.20;48.30
53286;DHT22;39171;45.550;12.074;2023-01-31T12:01:43;16.20;48.00
53286;DHT22;39171;45.550;12.074;2023-01-31T12:07:50;16.30;48.00
53286;DHT22;39171;45.550;12.074;2023-01-31T12:14:15;16.30;47.90
53286;DHT22;39171;45.550;12.074;2023-01-31T12:26:40;16.40;47.70
53286;DHT22;39171;45.550;12.074;2023-01-31T12:39:28;16.50;47.80
53286;DHT22;39171;45.550;12.074;2023-01-31T13:03:58;16.70;47.60
53286;DHT22;39171;45.550;12.074;2023-01-31T13:10:01;16.80;47.50
53286;DHT22;39171;45.550;12.074;2023-01-31T13:16:04;16.80;47.40
53286;DHT22;39171;45.550;12.074;2023-01-31T13:22:32;16.90;47.40
53286;DHT22;39171;45.550;12.074;2023-01-31T13:28:33;16.90;47.40
53286;DHT22;39171;45.550;12.074;2023-01-31T13:34:38;16.90;47.60
53286;DHT22;39171;45.550;12.074;2023-01-31T13:40:48;17.00;47.50
53286;DHT22;39171;45.550;12.074;2023-01-31T13:53:21;17.00;47.50
53286;DHT22;39171;45.550;12.074;2023-01-31T13:59:31;17.10;47.50
53286;DHT22;39171;45.550;12.074;2023-01-31T14:11:43;17.20;47.70
53286;DHT22;39171;45.550;12.074;2023-01-31T14:23:51;17.20;47.80
53286;DHT22;39171;45.550;12.074;2023-01-31T15:00:52;17.30;47.90
53286;DHT22;39171;45.550;12.074;2023-01-31T15:06:54;17.30;47.80
53286;DHT22;39171;45.550;12.074;2023-01-31T15:12:57;17.30;47.90
53286;DHT22;39171;45.550;12.074;2023-01-31T15:19:10;17.30;47.80
53286;DHT22;39171;45.550;12.074;2023-01-31T15:25:23;17.30;47.90
53286;DHT22;39171;45.550;12.074;2023-01-31T15:37:34;17.30;47.80
53286;DHT22;39171;45.550;12.074;2023-01-31T15:43:36;17.40;47.70
53286;DHT22;39171;45.550;12.074;2023-01-31T15:49:42;17.30;47.70
53286;DHT22;39171;45.550;12.074;2023-01-31T15:55:47;17.30;47.70
53286;DHT22;39171;45.550;12.074;2023-01-31T16:01:50;17.30;47.60
53286;DHT22;39171;45.550;12.074;2023-01-31T16:07:52;17.40;47.60
53286;DHT22;39171;45.550;12.074;2023-01-31T16:13:56;17.40;47.60
53286;DHT22;39171;45.550;12.074;2023-01-31T16:19:57;17.40;47.50
53286;DHT22;39171;45.550;12.074;2023-01-31T16:26:11;17.40;47.60
53286;DHT22;39171;45.550;12.074;2023-01-31T16:38:24;17.40;47.60
53286;DHT22;39171;45.550;12.074;2023-01-31T16:44:31;17.40;47.50
53286;DHT22;39171;45.550;12.074;2023-01-31T16:50:34;17.30;47.60
53286;DHT22;39171;45.550;12.074;2023-01-31T16:56:36;17.30;47.50
53286;DHT22;39171;45.550;12.074;2023-01-31T17:02:39;17.30;47.60
53286;DHT22;39171;45.550;12.074;2023-01-31T17:08:41;17.40;47.60
53286;DHT22;39171;45.550;12.074;2023-01-31T17:14:42;17.30;47.60
53286;DHT22;39171;45.550;12.074;2023-01-31T17:20:45;17.30;47.60
53286;DHT22;39171;45.550;12.074;2023-01-31T17:26:46;17.40;47.50
53286;DHT22;39171;45.550;12.074;2023-01-31T17:32:47;17.30;47.60
53286;DHT22;39171;45.550;12.074;2023-01-31T17:38:49;17.30;47.60
53286;DHT22;39171;45.550;12.074;2023-01-31T17:44:50;17.30;47.60
53286;DHT22;39171;45.550;12.074;2023-01-31T17:50:51;17.30;47.50
53286;DHT22;39171;45.550;12.074;2023-01-31T17:56:52;17.40;47.60
53286;DHT22;39171;45.550;12.074;2023-01-31T18:02:53;17.30;47.50
53286;DHT22;39171;45.550;12.074;2023-01-31T18:08:55;17.40;47.60
53286;DHT22;39171;45.550;12.074;2023-01-31T18:14:56;17.30;47.60
53286;DHT22;39171;45.550;12.074;2023-01-31T18:20:57;17.30;47.60
53286;DHT22;39171;45.550;12.074;2023-01-31T18:26:59;17.30;47.70
53286;DHT22;39171;45.550;12.074;2023-01-31T18:33:01;17.20;47.70
53286;DHT22;39171;45.550;12.074;2023-01-31T18:39:02;17.20;47.80
53286;DHT22;39171;45.550;12.074;2023-01-31T18:45:03;17.20;47.90
53286;DHT22;39171;45.550;12.074;2023-01-31T18:51:06;17.10;48.00
53286;DHT22;39171;45.550;12.074;2023-01-31T18:57:08;17.10;48.10
53286;DHT22;39171;45.550;12.074;2023-01-31T19:03:09;17.00;48.20
53286;DHT22;39171;45.550;12.074;2023-01-31T19:09:11;16.90;48.30
53286;DHT22;39171;45.550;12.074;2023-01-31T19:15:12;16.90;48.40
53286;DHT22;39171;45.550;12.074;2023-01-31T19:21:18;16.80;48.50
53286;DHT22;39171;45.550;12.074;2023-01-31T19:27:19;16.70;48.60
53286;DHT22;39171;45.550;12.074;2023-01-31T19:33:20;16.70;48.70
53286;DHT22;39171;45.550;12.074;2023-01-31T19:39:22;16.60;48.80
53286;DHT22;39171;45.550;12.074;2023-01-31T19:45:23;16.60;48.90
53286;DHT22;39171;45.550;12.074;2023-01-31T19:51:25;16.50;49.10
53286;DHT22;39171;45.550;12.074;2023-01-31T19:57:26;16.50;49.20
53286;DHT22;39171;45.550;12.074;2023-01-31T20:03:29;16.40;49.30
53286;DHT22;39171;45.550;12.074;2023-01-31T20:09:31;16.30;49.50
53286;DHT22;39171;45.550;12.074;2023-01-31T20:15:37;16.20;49.60
53286;DHT22;39171;45.550;12.074;2023-01-31T20:21:38;16.20;49.80
53286;DHT22;39171;45.550;12.074;2023-01-31T20:27:39;16.20;50.00
53286;DHT22;39171;45.550;12.074;2023-01-31T20:33:43;16.10;50.10
53286;DHT22;39171;45.550;12.074;2023-01-31T20:39:44;16.10;50.30
53286;DHT22;39171;45.550;12.074;2023-01-31T20:45:45;16.00;50.40
53286;DHT22;39171;45.550;12.074;2023-01-31T20:51:47;15.90;50.50
53286;DHT22;39171;45.550;12.074;2023-01-31T20:57:48;15.90;50.70
53286;DHT22;39171;45.550;12.074;2023-01-31T21:03:50;15.80;50.80
53286;DHT22;39171;45.550;12.074;2023-01-31T21:09:51;15.80;50.80
53286;DHT22;39171;45.550;12.074;2023-01-31T21:15:54;15.70;50.90
53286;DHT22;39171;45.550;12.074;2023-01-31T21:21:55;15.70;51.10
53286;DHT22;39171;45.550;12.074;2023-01-31T21:27:56;15.60;51.20
53286;DHT22;39171;45.550;12.074;2023-01-31T21:34:00;15.60;51.30
53286;DHT22;39171;45.550;12.074;2023-01-31T21:40:06;15.50;51.40
53286;DHT22;39171;45.550;12.074;2023-01-31T21:46:10;15.50;51.50
53286;DHT22;39171;45.550;12.074;2023-01-31T21:52:12;15.40;51.60
53286;DHT22;39171;45.550;12.074;2023-01-31T21:58:13;15.30;51.70
53286;DHT22;39171;45.550;12.074;2023-01-31T22:04:14;15.30;51.70
53286;DHT22;39171;45.550;12.074;2023-01-31T22:10:22;15.20;52.00
53286;DHT22;39171;45.550;12.074;2023-01-31T22:16:24;15.20;52.10
53286;DHT22;39171;45.550;12.074;2023-01-31T22:22:25;15.20;52.30
53286;DHT22;39171;45.550;12.074;2023-01-31T22:28:27;15.10;52.40
53286;DHT22;39171;45.550;12.074;2023-01-31T22:34:28;15.00;52.50
53286;DHT22;39171;45.550;12.074;2023-01-31T22:40:29;15.00;52.60
53286;DHT22;39171;45.550;12.074;2023-01-31T22:46:30;15.00;52.70
53286;DHT22;39171;45.550;12.074;2023-01-31T22:52:32;14.90;52.70
53286;DHT22;39171;45.550;12.074;2023-01-31T22:58:33;14.80;52.90
53286;DHT22;39171;45.550;12.074;2023-01-31T23:04:34;14.80;52.80
53286;DHT22;39171;45.550;12.074;2023-01-31T23:10:35;14.70;53.00
53286;DHT22;39171;45.550;12.074;2023-01-31T23:16:37;14.70;53.10
53286;DHT22;39171;45.550;12.074;2023-01-31T23:22:56;14.70;53.10
53286;DHT22;39171;45.550;12.074;2023-01-31T23:28:58;14.60;53.20
53286;DHT22;39171;45.550;12.074;2023-01-31T23:34:59;14.50;53.40
53286;DHT22;39171;45.550;12.074;2023-01-31T23:41:00;14.50;53.60
53286;DHT22;39171;45.550;12.074;2023-01-31T23:47:03;14.40;53.80
53286;DHT22;39171;45.550;12.074;2023-01-31T23:53:04;14.40;53.80
53286;DHT22;39171;45.550;12.074;2023-01-31T23:59:05;14.40;54.00
